sensor_id;sensor_type;location;lat;lon;timestamp;pressure;altitude;pressure_sealevel;temperature;humidity
6134;BME280;3098;42.678;23.364;2022-08-07T00:02:09;94663.22;;;23.11;74.13
6134;BME280;3098;42.678;23.364;2022-08-07T00:04:36;94661.72;;;23.07;73.32
6134;BME280;3098;42.678;23.364;2022-08-07T00:07:04;94655.56;;;22.96;72.74
6134;BME280;3098;42.678;23.364;2022-08-07T00:09:30;94662.53;;;22.82;72.24
6134;BME280;3098;42.678;23.364;2022-08-07T00:11:57;94659.84;;;22.79;73.14
6134;BME280;3098;42.678;23.364;2022-08-07T00:14:24;94656.78;;;22.73;73.47
6134;BME280;3098;42.678;23.364;2022-08-07T00:16:55;94665.28;;;22.75;74.46
6134;BME280;3098;42.678;23.364;2022-08-07T00:19:23;94659.88;;;22.72;73.95
6134;BME280;3098;42.678;23.364;2022-08-07T00:21:50;94659.09;;;22.68;74.82
6134;BME280;3098;42.678;23.364;2022-08-07T00:24:17;94654.84;;;22.56;75.03
6134;BME280;3098;42.678;23.364;2022-08-07T00:26:44;94667.59;;;22.63;75.72
6134;BME280;3098;42.678;23.364;2022-08-07T00:29:11;94666.81;;;22.80;75.38
6134;BME280;3098;42.678;23.364;2022-08-07T00:31:38;94666.03;;;22.90;75.39
6134;BME280;3098;42.678;23.364;2022-08-07T00:34:04;94660.97;;;22.88;75.18
6134;BME280;3098;42.678;23.364;2022-08-07T00:36:33;94653.69;;;22.78;75.59
6134;BME280;3098;42.678;23.364;2022-08-07T00:39:00;94661.75;;;22.93;75.93
6134;BME280;3098;42.678;23.364;2022-08-07T00:41:30;94658.31;;;22.78;74.69
6134;BME280;3098;42.678;23.364;2022-08-07T00:43:58;94665.66;;;22.60;75.60
6134;BME280;3098;42.678;23.364;2022-08-07T00:46:24;94665.28;;;22.68;75.34
6134;BME280;3098;42.678;23.364;2022-08-07T00:48:51;94635.56;;;22.51;74.55
6134;BME280;3098;42.678;23.364;2022-08-07T00:51:19;94662.19;;;22.63;74.29
6134;BME280;3098;42.678;23.364;2022-08-07T00:53:47;94663.34;;;22.65;75.46
6134;BME280;3098;42.678;23.364;2022-08-07T00:56:14;94641.38;;;22.53;74.36
6134;BME280;3098;42.678;23.364;2022-08-07T00:58:41;94667.59;;;22.63;75.40
6134;BME280;3098;42.678;23.364;2022-08-07T01:01:09;94672.63;;;22.57;76.76
6134;BME280;3098;42.678;23.364;2022-08-07T01:03:36;94666.84;;;22.73;76.49
6134;BME280;3098;42.678;23.364;2022-08-07T01:06:03;94671.88;;;22.64;76.88
6134;BME280;3098;42.678;23.364;2022-08-07T01:08:31;94660.66;;;22.55;77.82
6134;BME280;3098;42.678;23.364;2022-08-07T01:11:00;94666.47;;;22.53;77.65
6134;BME280;3098;42.678;23.364;2022-08-07T01:13:27;94671.50;;;22.48;78.41
6134;BME280;3098;42.678;23.364;2022-08-07T01:15:55;94695.44;;;22.31;78.87
6134;BME280;3098;42.678;23.364;2022-08-07T01:18:24;94677.69;;;22.27;78.51
6134;BME280;3098;42.678;23.364;2022-08-07T01:21:03;94676.91;;;22.26;77.87
6134;BME280;3098;42.678;23.364;2022-08-07T01:23:31;94684.63;;;22.17;78.09
6134;BME280;3098;42.678;23.364;2022-08-07T01:25:59;94673.41;;;22.22;78.28
6134;BME280;3098;42.678;23.364;2022-08-07T01:28:26;94661.44;;;22.34;77.24
6134;BME280;3098;42.678;23.364;2022-08-07T01:30:54;94681.16;;;22.17;78.28
6134;BME280;3098;42.678;23.364;2022-08-07T01:33:22;94688.09;;;22.28;77.51
6134;BME280;3098;42.678;23.364;2022-08-07T01:35:49;94639.88;;;22.09;77.92
6134;BME280;3098;42.678;23.364;2022-08-07T01:38:18;94677.28;;;22.32;78.84
6134;BME280;3098;42.678;23.364;2022-08-07T01:40:47;94682.31;;;22.26;79.39
6134;BME280;3098;42.678;23.364;2022-08-07T01:43:15;94668.03;;;22.26;78.84
6134;BME280;3098;42.678;23.364;2022-08-07T01:45:42;94674.59;;;22.36;78.64
6134;BME280;3098;42.678;23.364;2022-08-07T01:48:10;94704.31;;;22.36;79.31
6134;BME280;3098;42.678;23.364;2022-08-07T01:53:05;94702.00;;;22.27;77.97
6134;BME280;3098;42.678;23.364;2022-08-07T01:55:38;94727.06;;;22.17;77.84
6134;BME280;3098;42.678;23.364;2022-08-07T01:58:09;94756.78;;;22.17;78.09
6134;BME280;3098;42.678;23.364;2022-08-07T02:00:39;94779.94;;;22.07;79.17
6134;BME280;3098;42.678;23.364;2022-08-07T02:03:10;94757.16;;;22.01;79.72
6134;BME280;3098;42.678;23.364;2022-08-07T02:05:43;94748.69;;;21.99;78.87
6134;BME280;3098;42.678;23.364;2022-08-07T02:08:15;94772.19;;;22.06;79.36
6134;BME280;3098;42.678;23.364;2022-08-07T02:10:47;94771.44;;;22.09;80.11
6134;BME280;3098;42.678;23.364;2022-08-07T02:13:19;94765.66;;;22.10;80.14
6134;BME280;3098;42.678;23.364;2022-08-07T02:15:48;94779.53;;;22.05;81.85
6134;BME280;3098;42.678;23.364;2022-08-07T02:18:17;94781.06;;;21.92;84.37
6134;BME280;3098;42.678;23.364;2022-08-07T02:20:47;94766.25;;;21.58;88.26
6134;BME280;3098;42.678;23.364;2022-08-07T02:23:17;94782.78;;;21.46;91.20
6134;BME280;3098;42.678;23.364;2022-08-07T02:25:46;94773.50;;;21.36;94.54
6134;BME280;3098;42.678;23.364;2022-08-07T02:28:14;94765.31;;;21.11;98.52
6134;BME280;3098;42.678;23.364;2022-08-07T02:30:43;94734.25;;;20.81;100.00
6134;BME280;3098;42.678;23.364;2022-08-07T02:33:11;94744.06;;;20.48;100.00
6134;BME280;3098;42.678;23.364;2022-08-07T02:35:40;94745.06;;;20.26;100.00
6134;BME280;3098;42.678;23.364;2022-08-07T02:38:10;94736.81;;;20.12;100.00
6134;BME280;3098;42.678;23.364;2022-08-07T02:40:37;94703.94;;;19.92;100.00
6134;BME280;3098;42.678;23.364;2022-08-07T02:43:06;94704.81;;;20.03;100.00
6134;BME280;3098;42.678;23.364;2022-08-07T02:45:36;94685.53;;;19.94;100.00
6134;BME280;3098;42.678;23.364;2022-08-07T02:48:04;94713.22;;;19.98;100.00
6134;BME280;3098;42.678;23.364;2022-08-07T02:50:32;94686.00;;;20.07;100.00
6134;BME280;3098;42.678;23.364;2022-08-07T02:53:03;94695.13;;;20.39;100.00
6134;BME280;3098;42.678;23.364;2022-08-07T02:55:33;94695.34;;;20.20;100.00
6134;BME280;3098;42.678;23.364;2022-08-07T02:58:09;94700.69;;;20.17;100.00
6134;BME280;3098;42.678;23.364;2022-08-07T03:00:37;94705.16;;;20.42;100.00
6134;BME280;3098;42.678;23.364;2022-08-07T03:03:08;94690.31;;;20.70;100.00
6134;BME280;3098;42.678;23.364;2022-08-07T03:05:36;94686.25;;;21.04;100.00
6134;BME280;3098;42.678;23.364;2022-08-07T03:08:05;94677.38;;;20.96;100.00
6134;BME280;3098;42.678;23.364;2022-08-07T03:10:33;94690.56;;;21.08;100.00
6134;BME280;3098;42.678;23.364;2022-08-07T03:13:01;94693.25;;;21.08;100.00
6134;BME280;3098;42.678;23.364;2022-08-07T03:15:30;94674.69;;;21.03;100.00
6134;BME280;3098;42.678;23.364;2022-08-07T03:17:58;94683.28;;;21.19;100.00
6134;BME280;3098;42.678;23.364;2022-08-07T03:20:26;94687.91;;;21.30;100.00
6134;BME280;3098;42.678;23.364;2022-08-07T03:22:54;94698.69;;;21.23;100.00
6134;BME280;3098;42.678;23.364;2022-08-07T03:25:23;94702.88;;;21.13;100.00
6134;BME280;3098;42.678;23.364;2022-08-07T03:27:51;94700.13;;;21.02;100.00
6134;BME280;3098;42.678;23.364;2022-08-07T03:30:21;94702.41;;;21.04;100.00
6134;BME280;3098;42.678;23.364;2022-08-07T03:32:51;94701.63;;;20.96;100.00
6134;BME280;3098;42.678;23.364;2022-08-07T03:35:22;94703.56;;;20.99;100.00
6134;BME280;3098;42.678;23.364;2022-08-07T03:37:52;94699.28;;;20.91;100.00
6134;BME280;3098;42.678;23.364;2022-08-07T03:40:20;94696.25;;;21.03;100.00
6134;BME280;3098;42.678;23.364;2022-08-07T03:42:48;94701.75;;;21.17;100.00
6134;BME280;3098;42.678;23.364;2022-08-07T03:45:16;94698.72;;;21.40;100.00
6134;BME280;3098;42.678;23.364;2022-08-07T03:47:44;94709.09;;;21.24;100.00
6134;BME280;3098;42.678;23.364;2022-08-07T03:50:13;94716.41;;;21.24;100.00
6134;BME280;3098;42.678;23.364;2022-08-07T03:52:42;94722.22;;;21.29;100.00
6134;BME280;3098;42.678;23.364;2022-08-07T03:55:10;94719.53;;;21.33;100.00
6134;BME280;3098;42.678;23.364;2022-08-07T03:57:37;94720.72;;;21.42;100.00
6134;BME280;3098;42.678;23.364;2022-08-07T04:00:05;94665.50;;;21.15;100.00
6134;BME280;3098;42.678;23.364;2022-08-07T04:02:33;94721.91;;;21.55;100.00
6134;BME280;3098;42.678;23.364;2022-08-07T04:05:00;94708.06;;;21.64;100.00
6134;BME280;3098;42.678;23.364;2022-08-07T04:07:31;94703.50;;;21.89;100.00
6134;BME280;3098;42.678;23.364;2022-08-07T04:09:59;94639.06;;;21.81;100.00
6134;BME280;3098;42.678;23.364;2022-08-07T04:12:28;94722.44;;;22.46;100.00
6134;BME280;3098;42.678;23.364;2022-08-07T04:14:57;94727.84;;;22.63;100.00
6134;BME280;3098;42.678;23.364;2022-08-07T04:17:25;94726.69;;;22.47;100.00
6134;BME280;3098;42.678;23.364;2022-08-07T04:19:52;94721.66;;;22.49;100.00
6134;BME280;3098;42.678;23.364;2022-08-07T04:22:21;94742.53;;;22.87;100.00
6134;BME280;3098;42.678;23.364;2022-08-07T04:24:50;94732.47;;;22.84;100.00
6134;BME280;3098;42.678;23.364;2022-08-07T04:27:18;94708.53;;;22.72;100.00
6134;BME280;3098;42.678;23.364;2022-08-07T04:29:45;94742.53;;;22.87;100.00
6134;BME280;3098;42.678;23.364;2022-08-07T04:32:12;94736.72;;;22.96;100.00
6134;BME280;3098;42.678;23.364;2022-08-07T04:34:39;94715.47;;;22.87;99.17
6134;BME280;3098;42.678;23.364;2022-08-07T04:37:06;94737.78;;;23.26;96.91
6134;BME280;3098;42.678;23.364;2022-08-07T04:39:34;94754.31;;;23.53;96.42
6134;BME280;3098;42.678;23.364;2022-08-07T04:42:02;94756.59;;;23.65;95.77
6134;BME280;3098;42.678;23.364;2022-08-07T04:44:29;94743.09;;;23.55;95.94
6134;BME280;3098;42.678;23.364;2022-08-07T04:47:02;94750.38;;;23.75;96.04
6134;BME280;3098;42.678;23.364;2022-08-07T04:49:40;94734.56;;;23.60;96.66
6134;BME280;3098;42.678;23.364;2022-08-07T04:52:13;94758.09;;;23.73;96.77
6134;BME280;3098;42.678;23.364;2022-08-07T04:54:48;94761.22;;;23.65;97.79
6134;BME280;3098;42.678;23.364;2022-08-07T04:57:26;94748.28;;;24.00;97.18
6134;BME280;3098;42.678;23.364;2022-08-07T04:59:57;94754.06;;;24.02;96.24
6134;BME280;3098;42.678;23.364;2022-08-07T05:02:28;94767.97;;;24.15;96.18
6134;BME280;3098;42.678;23.364;2022-08-07T05:05:02;94742.94;;;24.45;93.25
6134;BME280;3098;42.678;23.364;2022-08-07T05:07:35;94769.56;;;24.61;90.91
6134;BME280;3098;42.678;23.364;2022-08-07T05:10:07;94778.31;;;24.79;89.48
6134;BME280;3098;42.678;23.364;2022-08-07T05:12:40;94776.91;;;25.45;84.23
6134;BME280;3098;42.678;23.364;2022-08-07T05:15:13;94782.59;;;26.45;79.14
6134;BME280;3098;42.678;23.364;2022-08-07T05:17:45;94773.69;;;27.96;72.26
6134;BME280;3098;42.678;23.364;2022-08-07T05:20:14;94785.06;;;28.95;68.50
6134;BME280;3098;42.678;23.364;2022-08-07T05:22:44;94773.78;;;30.62;61.83
6134;BME280;3098;42.678;23.364;2022-08-07T05:25:14;94777.94;;;31.82;55.28
6134;BME280;3098;42.678;23.364;2022-08-07T05:27:45;94785.66;;;31.97;54.71
6134;BME280;3098;42.678;23.364;2022-08-07T05:30:14;94783.69;;;32.50;51.59
6134;BME280;3098;42.678;23.364;2022-08-07T05:32:42;94782.81;;;32.62;51.69
6134;BME280;3098;42.678;23.364;2022-08-07T05:35:12;94785.00;;;33.34;48.85
6134;BME280;3098;42.678;23.364;2022-08-07T05:37:44;94792.06;;;33.80;48.17
6134;BME280;3098;42.678;23.364;2022-08-07T05:40:11;94796.34;;;34.83;44.81
6134;BME280;3098;42.678;23.364;2022-08-07T05:42:39;94810.78;;;35.11;43.16
6134;BME280;3098;42.678;23.364;2022-08-07T05:45:09;94816.09;;;35.86;40.87
6134;BME280;3098;42.678;23.364;2022-08-07T05:47:37;94806.69;;;33.50;44.09
6134;BME280;3098;42.678;23.364;2022-08-07T05:50:06;94792.94;;;33.86;44.08
6134;BME280;3098;42.678;23.364;2022-08-07T05:52:34;94819.75;;;33.10;46.81
6134;BME280;3098;42.678;23.364;2022-08-07T05:55:02;94814.09;;;30.62;52.33
6134;BME280;3098;42.678;23.364;2022-08-07T05:57:30;94819.00;;;30.54;54.03
6134;BME280;3098;42.678;23.364;2022-08-07T05:59:57;94822.50;;;32.70;47.34
6134;BME280;3098;42.678;23.364;2022-08-07T06:02:28;94832.69;;;33.76;45.36
6134;BME280;3098;42.678;23.364;2022-08-07T06:04:59;94831.72;;;35.65;41.03
6134;BME280;3098;42.678;23.364;2022-08-07T06:07:28;94815.31;;;36.38;38.55
6134;BME280;3098;42.678;23.364;2022-08-07T06:09:55;94843.78;;;35.91;39.02
6134;BME280;3098;42.678;23.364;2022-08-07T06:12:22;94836.44;;;36.56;38.23
6134;BME280;3098;42.678;23.364;2022-08-07T06:14:49;94767.59;;;34.42;41.32
6134;BME280;3098;42.678;23.364;2022-08-07T06:17:18;94827.34;;;34.00;42.69
6134;BME280;3098;42.678;23.364;2022-08-07T06:19:47;94842.72;;;35.50;40.67
6134;BME280;3098;42.678;23.364;2022-08-07T06:22:15;94841.72;;;34.73;40.96
6134;BME280;3098;42.678;23.364;2022-08-07T06:24:44;94837.63;;;35.58;39.13
6134;BME280;3098;42.678;23.364;2022-08-07T06:27:19;94823.91;;;34.83;40.65
6134;BME280;3098;42.678;23.364;2022-08-07T06:29:47;94831.28;;;36.19;37.96
6134;BME280;3098;42.678;23.364;2022-08-07T06:32:14;94835.75;;;36.17;37.73
6134;BME280;3098;42.678;23.364;2022-08-07T06:34:41;94773.28;;;35.28;38.68
6134;BME280;3098;42.678;23.364;2022-08-07T06:37:09;94845.19;;;35.25;39.25
6134;BME280;3098;42.678;23.364;2022-08-07T06:39:37;94842.41;;;34.92;39.55
6134;BME280;3098;42.678;23.364;2022-08-07T06:42:07;94840.81;;;35.09;39.89
6134;BME280;3098;42.678;23.364;2022-08-07T06:44:35;94844.50;;;34.97;39.71
6134;BME280;3098;42.678;23.364;2022-08-07T06:47:03;94844.16;;;33.93;41.38
6134;BME280;3098;42.678;23.364;2022-08-07T06:49:31;94832.94;;;35.88;37.72
6134;BME280;3098;42.678;23.364;2022-08-07T06:52:00;94840.03;;;35.41;38.03
6134;BME280;3098;42.678;23.364;2022-08-07T06:54:30;94832.84;;;33.64;40.90
6134;BME280;3098;42.678;23.364;2022-08-07T06:56:58;94840.09;;;34.57;39.73
6134;BME280;3098;42.678;23.364;2022-08-07T06:59:28;94832.19;;;34.32;40.51
6134;BME280;3098;42.678;23.364;2022-08-07T07:01:57;94843.59;;;35.00;39.57
6134;BME280;3098;42.678;23.364;2022-08-07T07:04:25;94847.94;;;34.83;39.07
6134;BME280;3098;42.678;23.364;2022-08-07T07:06:52;94821.94;;;34.33;39.62
6134;BME280;3098;42.678;23.364;2022-08-07T07:09:21;94844.00;;;34.05;41.14
6134;BME280;3098;42.678;23.364;2022-08-07T07:12:13;94839.84;;;34.28;41.41
6134;BME280;3098;42.678;23.364;2022-08-07T07:14:48;94841.06;;;35.20;38.89
6134;BME280;3098;42.678;23.364;2022-08-07T07:17:23;94841.84;;;34.19;40.07
6134;BME280;3098;42.678;23.364;2022-08-07T07:19:56;94839.50;;;33.17;42.56
6134;BME280;3098;42.678;23.364;2022-08-07T07:22:26;94834.78;;;32.78;41.89
6134;BME280;3098;42.678;23.364;2022-08-07T07:24:55;94827.44;;;32.84;40.48
6134;BME280;3098;42.678;23.364;2022-08-07T07:27:28;94766.81;;;32.29;41.27
6134;BME280;3098;42.678;23.364;2022-08-07T07:29:59;94829.16;;;33.48;40.18
6134;BME280;3098;42.678;23.364;2022-08-07T07:32:29;94821.22;;;31.31;42.80
6134;BME280;3098;42.678;23.364;2022-08-07T07:35:02;94818.34;;;31.13;43.92
6134;BME280;3098;42.678;23.364;2022-08-07T07:37:29;94831.09;;;32.19;43.18
6134;BME280;3098;42.678;23.364;2022-08-07T07:40:02;94833.22;;;31.59;42.37
6134;BME280;3098;42.678;23.364;2022-08-07T07:42:33;94832.50;;;30.99;43.08
6134;BME280;3098;42.678;23.364;2022-08-07T07:45:03;94838.59;;;30.65;44.15
6134;BME280;3098;42.678;23.364;2022-08-07T07:47:33;94843.69;;;31.73;42.79
6134;BME280;3098;42.678;23.364;2022-08-07T07:50:02;94843.06;;;31.91;41.84
6134;BME280;3098;42.678;23.364;2022-08-07T07:52:29;94842.72;;;32.02;42.02
6134;BME280;3098;42.678;23.364;2022-08-07T07:54:58;94851.69;;;32.46;41.62
6134;BME280;3098;42.678;23.364;2022-08-07T07:57:26;94791.91;;;32.19;39.64
6134;BME280;3098;42.678;23.364;2022-08-07T07:59:56;94835.47;;;32.38;39.29
6134;BME280;3098;42.678;23.364;2022-08-07T08:02:25;94843.06;;;32.34;39.85
6134;BME280;3098;42.678;23.364;2022-08-07T08:04:55;94852.88;;;34.09;37.99
6134;BME280;3098;42.678;23.364;2022-08-07T08:07:23;94837.84;;;31.84;40.71
6134;BME280;3098;42.678;23.364;2022-08-07T08:09:51;94843.81;;;32.04;41.45
6134;BME280;3098;42.678;23.364;2022-08-07T08:12:19;94861.69;;;33.01;39.71
6134;BME280;3098;42.678;23.364;2022-08-07T08:14:47;94860.78;;;32.95;38.64
6134;BME280;3098;42.678;23.364;2022-08-07T08:17:15;94860.97;;;34.13;36.98
6134;BME280;3098;42.678;23.364;2022-08-07T08:19:44;94848.44;;;33.94;36.75
6134;BME280;3098;42.678;23.364;2022-08-07T08:22:12;94839.53;;;31.47;40.81
6134;BME280;3098;42.678;23.364;2022-08-07T08:24:57;94805.75;;;31.38;41.02
6134;BME280;3098;42.678;23.364;2022-08-07T08:27:43;94758.69;;;31.39;40.80
6134;BME280;3098;42.678;23.364;2022-08-07T08:30:15;94790.09;;;30.66;42.49
6134;BME280;3098;42.678;23.364;2022-08-07T08:32:46;94813.28;;;30.74;43.25
6134;BME280;3098;42.678;23.364;2022-08-07T08:35:19;94851.28;;;31.22;42.49
6134;BME280;3098;42.678;23.364;2022-08-07T08:37:48;94855.09;;;31.38;42.68
6134;BME280;3098;42.678;23.364;2022-08-07T08:40:21;94854.44;;;31.80;41.90
6134;BME280;3098;42.678;23.364;2022-08-07T08:42:55;94838.00;;;31.68;40.83
6134;BME280;3098;42.678;23.364;2022-08-07T08:45:30;94858.75;;;33.35;39.02
6134;BME280;3098;42.678;23.364;2022-08-07T08:48:07;94855.91;;;33.66;38.18
6134;BME280;3098;42.678;23.364;2022-08-07T08:50:40;94855.00;;;33.69;38.20
6134;BME280;3098;42.678;23.364;2022-08-07T08:53:14;94863.06;;;33.45;36.79
6134;BME280;3098;42.678;23.364;2022-08-07T08:55:47;94843.16;;;32.74;39.05
6134;BME280;3098;42.678;23.364;2022-08-07T08:58:21;94846.53;;;32.26;38.77
6134;BME280;3098;42.678;23.364;2022-08-07T09:00:58;94834.91;;;32.43;38.51
6134;BME280;3098;42.678;23.364;2022-08-07T09:03:30;94851.69;;;32.76;38.99
6134;BME280;3098;42.678;23.364;2022-08-07T09:06:04;94846.03;;;33.11;37.93
6134;BME280;3098;42.678;23.364;2022-08-07T09:08:38;94851.97;;;32.17;40.32
6134;BME280;3098;42.678;23.364;2022-08-07T09:11:16;94846.84;;;32.89;39.23
6134;BME280;3098;42.678;23.364;2022-08-07T09:13:58;94837.50;;;33.09;38.69
6134;BME280;3098;42.678;23.364;2022-08-07T09:16:36;94850.25;;;31.42;41.67
6134;BME280;3098;42.678;23.364;2022-08-07T09:19:19;94849.25;;;33.09;38.87
6134;BME280;3098;42.678;23.364;2022-08-07T09:21:57;94807.81;;;31.46;41.03
6134;BME280;3098;42.678;23.364;2022-08-07T09:24:39;94828.97;;;31.46;41.71
6134;BME280;3098;42.678;23.364;2022-08-07T09:27:20;94814.53;;;32.01;41.07
6134;BME280;3098;42.678;23.364;2022-08-07T09:29:55;94792.19;;;32.42;39.63
6134;BME280;3098;42.678;23.364;2022-08-07T09:35:27;94762.75;;;32.83;37.67
6134;BME280;3098;42.678;23.364;2022-08-07T09:38:03;94763.09;;;34.63;35.33
6134;BME280;3098;42.678;23.364;2022-08-07T09:40:56;94814.63;;;34.21;36.17
6134;BME280;3098;42.678;23.364;2022-08-07T09:43:35;94819.53;;;32.86;37.60
6134;BME280;3098;42.678;23.364;2022-08-07T09:46:19;94805.53;;;30.98;41.25
6134;BME280;3098;42.678;23.364;2022-08-07T09:48:58;94812.03;;;33.26;38.07
6134;BME280;3098;42.678;23.364;2022-08-07T09:51:42;94804.06;;;33.46;36.39
6134;BME280;3098;42.678;23.364;2022-08-07T09:54:17;94817.44;;;32.59;37.13
6134;BME280;3098;42.678;23.364;2022-08-07T09:57:10;94786.56;;;31.38;39.71
6134;BME280;3098;42.678;23.364;2022-08-07T10:00:03;94764.75;;;32.52;37.68
6134;BME280;3098;42.678;23.364;2022-08-07T10:02:55;94795.38;;;32.72;38.34
6134;BME280;3098;42.678;23.364;2022-08-07T10:05:37;94803.44;;;32.66;36.97
6134;BME280;3098;42.678;23.364;2022-08-07T10:08:32;94778.16;;;32.40;37.61
6134;BME280;3098;42.678;23.364;2022-08-07T10:11:07;94788.47;;;33.07;35.63
6134;BME280;3098;42.678;23.364;2022-08-07T10:13:58;94797.25;;;32.53;36.58
6134;BME280;3098;42.678;23.364;2022-08-07T10:16:54;94771.69;;;30.79;39.83
6134;BME280;3098;42.678;23.364;2022-08-07T10:19:44;94779.66;;;31.89;38.20
6134;BME280;3098;42.678;23.364;2022-08-07T10:22:35;94780.63;;;30.92;40.48
6134;BME280;3098;42.678;23.364;2022-08-07T10:25:19;94767.94;;;31.67;38.76
6134;BME280;3098;42.678;23.364;2022-08-07T10:28:02;94765.75;;;32.36;37.08
6134;BME280;3098;42.678;23.364;2022-08-07T10:30:42;94774.13;;;32.02;37.89
6134;BME280;3098;42.678;23.364;2022-08-07T10:33:26;94777.59;;;32.94;38.42
6134;BME280;3098;42.678;23.364;2022-08-07T10:36:11;94789.25;;;32.68;37.36
6134;BME280;3098;42.678;23.364;2022-08-07T10:38:58;94799.63;;;30.99;39.75
6134;BME280;3098;42.678;23.364;2022-08-07T10:41:39;94784.78;;;31.22;38.06
6134;BME280;3098;42.678;23.364;2022-08-07T10:44:14;94787.59;;;31.87;37.38
6134;BME280;3098;42.678;23.364;2022-08-07T10:46:50;94774.19;;;32.11;36.76
6134;BME280;3098;42.678;23.364;2022-08-07T10:49:22;94796.53;;;32.31;37.27
6134;BME280;3098;42.678;23.364;2022-08-07T10:51:55;94761.19;;;30.65;38.98
6134;BME280;3098;42.678;23.364;2022-08-07T10:54:30;94798.41;;;30.88;39.33
6134;BME280;3098;42.678;23.364;2022-08-07T10:57:09;94795.25;;;30.64;39.81
6134;BME280;3098;42.678;23.364;2022-08-07T10:59:54;94771.41;;;31.46;37.78
6134;BME280;3098;42.678;23.364;2022-08-07T11:02:28;94794.81;;;31.25;37.81
6134;BME280;3098;42.678;23.364;2022-08-07T11:05:07;94787.81;;;30.64;39.27
6134;BME280;3098;42.678;23.364;2022-08-07T11:07:41;94801.13;;;31.13;39.88
6134;BME280;3098;42.678;23.364;2022-08-07T11:10:16;94793.47;;;30.19;43.98
6134;BME280;3098;42.678;23.364;2022-08-07T11:12:50;94751.34;;;30.55;42.69
6134;BME280;3098;42.678;23.364;2022-08-07T11:15:23;94776.81;;;31.02;40.77
6134;BME280;3098;42.678;23.364;2022-08-07T11:17:58;94774.97;;;30.74;40.84
6134;BME280;3098;42.678;23.364;2022-08-07T11:20:44;94755.53;;;31.19;40.67
6134;BME280;3098;42.678;23.364;2022-08-07T11:23:17;94788.34;;;30.72;42.18
6134;BME280;3098;42.678;23.364;2022-08-07T11:25:52;94794.63;;;29.93;44.09
6134;BME280;3098;42.678;23.364;2022-08-07T11:28:25;94759.31;;;29.70;44.63
6134;BME280;3098;42.678;23.364;2022-08-07T11:30:58;94794.72;;;29.61;46.82
6134;BME280;3098;42.678;23.364;2022-08-07T11:33:33;94798.34;;;29.42;47.93
6134;BME280;3098;42.678;23.364;2022-08-07T11:36:15;94785.41;;;29.58;46.04
6134;BME280;3098;42.678;23.364;2022-08-07T11:38:51;94792.84;;;29.13;46.84
6134;BME280;3098;42.678;23.364;2022-08-07T11:41:22;94792.16;;;28.93;48.03
6134;BME280;3098;42.678;23.364;2022-08-07T11:43:57;94802.94;;;28.68;49.41
6134;BME280;3098;42.678;23.364;2022-08-07T11:46:45;94781.03;;;28.35;51.47
6134;BME280;3098;42.678;23.364;2022-08-07T11:49:28;94784.50;;;28.00;53.62
6134;BME280;3098;42.678;23.364;2022-08-07T11:52:12;94765.66;;;28.09;51.40
6134;BME280;3098;42.678;23.364;2022-08-07T11:54:57;94784.19;;;27.98;51.04
6134;BME280;3098;42.678;23.364;2022-08-07T11:57:31;94799.53;;;28.44;51.46
6134;BME280;3098;42.678;23.364;2022-08-07T12:00:07;94740.69;;;28.11;50.25
6134;BME280;3098;42.678;23.364;2022-08-07T12:05:39;94791.75;;;28.78;50.63
6134;BME280;3098;42.678;23.364;2022-08-07T12:08:13;94792.78;;;28.68;50.54
6134;BME280;3098;42.678;23.364;2022-08-07T12:10:46;94734.56;;;28.39;51.37
6134;BME280;3098;42.678;23.364;2022-08-07T12:13:21;94782.25;;;28.34;51.14
6134;BME280;3098;42.678;23.364;2022-08-07T12:15:53;94773.41;;;28.11;52.00
6134;BME280;3098;42.678;23.364;2022-08-07T12:18:24;94803.56;;;28.04;52.52
6134;BME280;3098;42.678;23.364;2022-08-07T12:21:00;94756.25;;;27.74;53.82
6134;BME280;3098;42.678;23.364;2022-08-07T12:23:41;94779.19;;;28.13;54.21
6134;BME280;3098;42.678;23.364;2022-08-07T12:26:13;94791.44;;;28.40;54.94
6134;BME280;3098;42.678;23.364;2022-08-07T12:28:48;94767.03;;;28.17;54.80
6134;BME280;3098;42.678;23.364;2022-08-07T12:31:29;94791.72;;;28.46;54.98
6134;BME280;3098;42.678;23.364;2022-08-07T12:33:58;94773.22;;;29.02;53.31
6134;BME280;3098;42.678;23.364;2022-08-07T12:36:27;94759.28;;;29.13;51.81
6134;BME280;3098;42.678;23.364;2022-08-07T12:38:55;94732.19;;;28.89;49.79
6134;BME280;3098;42.678;23.364;2022-08-07T12:41:24;94774.75;;;29.03;49.00
6134;BME280;3098;42.678;23.364;2022-08-07T12:43:54;94778.91;;;29.40;47.92
6134;BME280;3098;42.678;23.364;2022-08-07T12:46:33;94665.28;;;28.20;48.91
6134;BME280;3098;42.678;23.364;2022-08-07T12:49:10;94708.50;;;28.54;48.98
6134;BME280;3098;42.678;23.364;2022-08-07T12:51:42;94767.75;;;28.37;50.16
6134;BME280;3098;42.678;23.364;2022-08-07T12:54:16;94654.38;;;28.20;49.10
6134;BME280;3098;42.678;23.364;2022-08-07T12:56:48;94775.63;;;28.68;50.34
6134;BME280;3098;42.678;23.364;2022-08-07T12:59:19;94745.94;;;28.86;49.63
6134;BME280;3098;42.678;23.364;2022-08-07T13:01:57;94714.72;;;28.22;50.66
6134;BME280;3098;42.678;23.364;2022-08-07T13:04:50;94760.81;;;28.69;51.26
6134;BME280;3098;42.678;23.364;2022-08-07T13:07:41;94756.59;;;28.64;50.77
6134;BME280;3098;42.678;23.364;2022-08-07T13:10:32;94758.34;;;28.22;51.48
6134;BME280;3098;42.678;23.364;2022-08-07T13:13:19;94752.63;;;28.17;51.24
6134;BME280;3098;42.678;23.364;2022-08-07T13:15:55;94747.78;;;28.24;51.28
6134;BME280;3098;42.678;23.364;2022-08-07T13:18:32;94755.22;;;28.40;50.19
6134;BME280;3098;42.678;23.364;2022-08-07T13:21:08;94726.72;;;28.25;48.77
6134;BME280;3098;42.678;23.364;2022-08-07T13:23:44;94741.16;;;28.58;49.25
6134;BME280;3098;42.678;23.364;2022-08-07T13:26:21;94738.34;;;28.93;46.56
6134;BME280;3098;42.678;23.364;2022-08-07T13:29:00;94741.63;;;29.17;46.48
6134;BME280;3098;42.678;23.364;2022-08-07T13:31:34;94703.84;;;28.99;46.51
6134;BME280;3098;42.678;23.364;2022-08-07T13:34:10;94732.84;;;29.26;46.66
6134;BME280;3098;42.678;23.364;2022-08-07T13:36:42;94713.28;;;29.27;46.32
6134;BME280;3098;42.678;23.364;2022-08-07T13:39:17;94722.78;;;29.64;45.89
6134;BME280;3098;42.678;23.364;2022-08-07T13:41:50;94705.16;;;29.24;46.75
6134;BME280;3098;42.678;23.364;2022-08-07T13:44:20;94730.09;;;29.26;47.73
6134;BME280;3098;42.678;23.364;2022-08-07T13:46:51;94728.66;;;29.50;46.80